sensor_id;sensor_type;location;lat;lon;timestamp;P1;durP1;ratioP1;P2;durP2;ratioP2
45408;SDS011;31162;51.076;3.784;2022-12-18T00:01:02;102.20;;;49.90;;
45408;SDS011;31162;51.076;3.784;2022-12-18T00:03:33;101.13;;;48.78;;
45408;SDS011;31162;51.076;3.784;2022-12-18T00:05:59;98.43;;;46.13;;
45408;SDS011;31162;51.076;3.784;2022-12-18T00:08:26;98.97;;;48.30;;
45408;SDS011;31162;51.076;3.784;2022-12-18T00:10:52;105.22;;;47.85;;
45408;SDS011;31162;51.076;3.784;2022-12-18T00:13:18;94.35;;;46.45;;
45408;SDS011;31162;51.076;3.784;2022-12-18T00:15:44;90.88;;;46.50;;
45408;SDS011;31162;51.076;3.784;2022-12-18T00:18:09;100.45;;;46.72;;
45408;SDS011;31162;51.076;3.784;2022-12-18T00:20:36;99.15;;;45.67;;
45408;SDS011;31162;51.076;3.784;2022-12-18T00:23:03;93.70;;;45.85;;
45408;SDS011;31162;51.076;3.784;2022-12-18T00:25:29;97.72;;;42.33;;
45408;SDS011;31162;51.076;3.784;2022-12-18T00:27:54;83.57;;;42.70;;
45408;SDS011;31162;51.076;3.784;2022-12-18T00:30:20;86.25;;;42.58;;
45408;SDS011;31162;51.076;3.784;2022-12-18T00:32:46;87.55;;;40.58;;
45408;SDS011;31162;51.076;3.784;2022-12-18T00:35:11;84.55;;;40.85;;
45408;SDS011;31162;51.076;3.784;2022-12-18T00:37:37;87.90;;;39.75;;
45408;SDS011;31162;51.076;3.784;2022-12-18T00:40:03;85.40;;;38.88;;
45408;SDS011;31162;51.076;3.784;2022-12-18T00:42:29;84.03;;;39.63;;
45408;SDS011;31162;51.076;3.784;2022-12-18T00:45:13;81.07;;;38.00;;
45408;SDS011;31162;51.076;3.784;2022-12-18T00:47:39;81.50;;;38.88;;
45408;SDS011;31162;51.076;3.784;2022-12-18T00:50:05;83.78;;;37.42;;
45408;SDS011;31162;51.076;3.784;2022-12-18T00:52:31;73.38;;;36.25;;
45408;SDS011;31162;51.076;3.784;2022-12-18T00:54:56;71.95;;;38.38;;
45408;SDS011;31162;51.076;3.784;2022-12-18T00:57:22;73.20;;;35.10;;
45408;SDS011;31162;51.076;3.784;2022-12-18T00:59:48;78.05;;;36.40;;
45408;SDS011;31162;51.076;3.784;2022-12-18T01:02:13;88.25;;;38.72;;
45408;SDS011;31162;51.076;3.784;2022-12-18T01:04:39;81.20;;;36.28;;
45408;SDS011;31162;51.076;3.784;2022-12-18T01:07:04;73.68;;;36.00;;
45408;SDS011;31162;51.076;3.784;2022-12-18T01:09:30;77.53;;;36.13;;
45408;SDS011;31162;51.076;3.784;2022-12-18T01:11:56;71.93;;;34.33;;
45408;SDS011;31162;51.076;3.784;2022-12-18T01:14:21;78.50;;;35.75;;
45408;SDS011;31162;51.076;3.784;2022-12-18T01:16:47;79.13;;;35.80;;
45408;SDS011;31162;51.076;3.784;2022-12-18T01:19:12;74.10;;;36.17;;
45408;SDS011;31162;51.076;3.784;2022-12-18T01:21:38;72.88;;;34.15;;
45408;SDS011;31162;51.076;3.784;2022-12-18T01:24:04;76.30;;;35.53;;
45408;SDS011;31162;51.076;3.784;2022-12-18T01:26:30;76.38;;;36.83;;
45408;SDS011;31162;51.076;3.784;2022-12-18T01:28:56;74.55;;;35.30;;
45408;SDS011;31162;51.076;3.784;2022-12-18T01:31:27;73.32;;;34.45;;
45408;SDS011;31162;51.076;3.784;2022-12-18T01:33:59;69.88;;;34.13;;
45408;SDS011;31162;51.076;3.784;2022-12-18T01:36:30;69.10;;;33.00;;
45408;SDS011;31162;51.076;3.784;2022-12-18T01:41:25;66.57;;;31.08;;
45408;SDS011;31162;51.076;3.784;2022-12-18T01:47:19;70.25;;;33.22;;
45408;SDS011;31162;51.076;3.784;2022-12-18T01:49:48;64.03;;;30.88;;
45408;SDS011;31162;51.076;3.784;2022-12-18T01:52:14;63.70;;;31.50;;
45408;SDS011;31162;51.076;3.784;2022-12-18T01:54:42;69.93;;;32.97;;
45408;SDS011;31162;51.076;3.784;2022-12-18T01:57:08;65.93;;;33.40;;
45408;SDS011;31162;51.076;3.784;2022-12-18T01:59:34;71.95;;;32.83;;
45408;SDS011;31162;51.076;3.784;2022-12-18T02:02:00;61.95;;;32.30;;
45408;SDS011;31162;51.076;3.784;2022-12-18T02:04:27;68.97;;;31.38;;
45408;SDS011;31162;51.076;3.784;2022-12-18T02:07:14;60.20;;;30.25;;
45408;SDS011;31162;51.076;3.784;2022-12-18T02:09:49;69.53;;;32.38;;
45408;SDS011;31162;51.076;3.784;2022-12-18T02:12:24;62.20;;;30.83;;
45408;SDS011;31162;51.076;3.784;2022-12-18T02:15:00;60.83;;;31.50;;
45408;SDS011;31162;51.076;3.784;2022-12-18T02:17:40;66.05;;;31.63;;
45408;SDS011;31162;51.076;3.784;2022-12-18T02:22:49;64.38;;;31.45;;
45408;SDS011;31162;51.076;3.784;2022-12-18T02:25:40;65.95;;;30.38;;
45408;SDS011;31162;51.076;3.784;2022-12-18T02:28:28;63.08;;;30.55;;
45408;SDS011;31162;51.076;3.784;2022-12-18T02:30:57;62.80;;;30.25;;
45408;SDS011;31162;51.076;3.784;2022-12-18T02:33:26;64.35;;;31.33;;
45408;SDS011;31162;51.076;3.784;2022-12-18T02:35:53;64.20;;;31.65;;
45408;SDS011;31162;51.076;3.784;2022-12-18T02:38:20;75.10;;;33.03;;
45408;SDS011;31162;51.076;3.784;2022-12-18T02:40:47;68.45;;;31.45;;
45408;SDS011;31162;51.076;3.784;2022-12-18T02:43:15;64.28;;;33.00;;
45408;SDS011;31162;51.076;3.784;2022-12-18T02:45:48;66.70;;;31.77;;
45408;SDS011;31162;51.076;3.784;2022-12-18T02:48:20;69.55;;;31.13;;
45408;SDS011;31162;51.076;3.784;2022-12-18T02:53:32;62.80;;;30.25;;
45408;SDS011;31162;51.076;3.784;2022-12-18T02:58:58;59.45;;;29.00;;
45408;SDS011;31162;51.076;3.784;2022-12-18T03:01:34;55.50;;;28.40;;
45408;SDS011;31162;51.076;3.784;2022-12-18T03:04:10;55.30;;;27.48;;
45408;SDS011;31162;51.076;3.784;2022-12-18T03:06:40;48.08;;;25.70;;
45408;SDS011;31162;51.076;3.784;2022-12-18T03:09:12;58.42;;;26.88;;
45408;SDS011;31162;51.076;3.784;2022-12-18T03:11:44;53.65;;;27.60;;
45408;SDS011;31162;51.076;3.784;2022-12-18T03:14:35;61.58;;;26.92;;
45408;SDS011;31162;51.076;3.784;2022-12-18T03:17:03;56.35;;;26.63;;
45408;SDS011;31162;51.076;3.784;2022-12-18T03:19:32;51.40;;;25.30;;
45408;SDS011;31162;51.076;3.784;2022-12-18T03:22:00;51.58;;;26.67;;
45408;SDS011;31162;51.076;3.784;2022-12-18T03:24:27;57.55;;;26.55;;
45408;SDS011;31162;51.076;3.784;2022-12-18T03:26:57;54.35;;;27.27;;
45408;SDS011;31162;51.076;3.784;2022-12-18T03:29:35;57.00;;;27.35;;
45408;SDS011;31162;51.076;3.784;2022-12-18T03:32:15;53.35;;;28.17;;
45408;SDS011;31162;51.076;3.784;2022-12-18T03:34:49;53.92;;;26.50;;
45408;SDS011;31162;51.076;3.784;2022-12-18T03:37:16;51.47;;;27.33;;
45408;SDS011;31162;51.076;3.784;2022-12-18T03:39:41;57.05;;;26.45;;
45408;SDS011;31162;51.076;3.784;2022-12-18T03:42:10;56.92;;;27.23;;
45408;SDS011;31162;51.076;3.784;2022-12-18T03:47:38;48.53;;;26.08;;
45408;SDS011;31162;51.076;3.784;2022-12-18T03:52:37;52.58;;;27.15;;
45408;SDS011;31162;51.076;3.784;2022-12-18T03:55:07;52.75;;;27.42;;
45408;SDS011;31162;51.076;3.784;2022-12-18T03:57:34;53.95;;;26.50;;
45408;SDS011;31162;51.076;3.784;2022-12-18T04:00:09;55.50;;;25.80;;
45408;SDS011;31162;51.076;3.784;2022-12-18T04:02:46;54.30;;;26.58;;
45408;SDS011;31162;51.076;3.784;2022-12-18T04:05:18;48.90;;;25.92;;
45408;SDS011;31162;51.076;3.784;2022-12-18T04:07:46;49.67;;;26.75;;
45408;SDS011;31162;51.076;3.784;2022-12-18T04:10:14;49.42;;;25.90;;
45408;SDS011;31162;51.076;3.784;2022-12-18T04:12:41;50.45;;;26.02;;
45408;SDS011;31162;51.076;3.784;2022-12-18T04:15:08;55.45;;;26.85;;
45408;SDS011;31162;51.076;3.784;2022-12-18T04:17:34;53.60;;;25.73;;
45408;SDS011;31162;51.076;3.784;2022-12-18T04:20:00;52.20;;;25.48;;
45408;SDS011;31162;51.076;3.784;2022-12-18T04:22:25;55.25;;;27.60;;
45408;SDS011;31162;51.076;3.784;2022-12-18T04:24:51;56.30;;;27.83;;
45408;SDS011;31162;51.076;3.784;2022-12-18T04:27:17;61.60;;;29.48;;
45408;SDS011;31162;51.076;3.784;2022-12-18T04:29:42;58.40;;;27.88;;
45408;SDS011;31162;51.076;3.784;2022-12-18T04:32:08;52.10;;;28.60;;
45408;SDS011;31162;51.076;3.784;2022-12-18T04:34:34;53.22;;;26.50;;
45408;SDS011;31162;51.076;3.784;2022-12-18T04:36:59;57.45;;;28.40;;
45408;SDS011;31162;51.076;3.784;2022-12-18T04:39:25;55.38;;;28.02;;
45408;SDS011;31162;51.076;3.784;2022-12-18T04:41:51;56.85;;;28.10;;
45408;SDS011;31162;51.076;3.784;2022-12-18T04:44:17;55.75;;;28.83;;
45408;SDS011;31162;51.076;3.784;2022-12-18T04:46:42;57.38;;;29.17;;
45408;SDS011;31162;51.076;3.784;2022-12-18T04:49:08;53.65;;;28.25;;
45408;SDS011;31162;51.076;3.784;2022-12-18T04:51:35;57.03;;;28.20;;
45408;SDS011;31162;51.076;3.784;2022-12-18T04:54:02;54.00;;;27.08;;
45408;SDS011;31162;51.076;3.784;2022-12-18T04:56:28;52.13;;;27.88;;
45408;SDS011;31162;51.076;3.784;2022-12-18T04:58:55;53.50;;;26.60;;
45408;SDS011;31162;51.076;3.784;2022-12-18T05:01:21;50.22;;;26.85;;
45408;SDS011;31162;51.076;3.784;2022-12-18T05:03:46;50.35;;;26.33;;
45408;SDS011;31162;51.076;3.784;2022-12-18T05:06:12;52.22;;;26.58;;
45408;SDS011;31162;51.076;3.784;2022-12-18T05:08:38;47.38;;;26.05;;
45408;SDS011;31162;51.076;3.784;2022-12-18T05:11:05;45.22;;;25.40;;
45408;SDS011;31162;51.076;3.784;2022-12-18T05:13:33;43.08;;;23.88;;
45408;SDS011;31162;51.076;3.784;2022-12-18T05:16:00;44.58;;;24.50;;
45408;SDS011;31162;51.076;3.784;2022-12-18T05:18:26;46.42;;;25.42;;
45408;SDS011;31162;51.076;3.784;2022-12-18T05:20:52;42.60;;;24.35;;
45408;SDS011;31162;51.076;3.784;2022-12-18T05:23:19;54.45;;;26.63;;
45408;SDS011;31162;51.076;3.784;2022-12-18T05:25:51;48.08;;;26.13;;
45408;SDS011;31162;51.076;3.784;2022-12-18T05:28:22;47.58;;;24.63;;
45408;SDS011;31162;51.076;3.784;2022-12-18T05:30:49;47.35;;;24.77;;
45408;SDS011;31162;51.076;3.784;2022-12-18T05:33:25;44.90;;;24.30;;
45408;SDS011;31162;51.076;3.784;2022-12-18T05:35:54;48.78;;;25.30;;
45408;SDS011;31162;51.076;3.784;2022-12-18T05:38:21;44.97;;;24.77;;
45408;SDS011;31162;51.076;3.784;2022-12-18T05:40:48;49.97;;;25.08;;
45408;SDS011;31162;51.076;3.784;2022-12-18T05:43:14;49.55;;;24.23;;
45408;SDS011;31162;51.076;3.784;2022-12-18T05:45:40;46.13;;;24.25;;
45408;SDS011;31162;51.076;3.784;2022-12-18T05:48:07;48.78;;;25.77;;
45408;SDS011;31162;51.076;3.784;2022-12-18T05:50:34;48.50;;;25.15;;
45408;SDS011;31162;51.076;3.784;2022-12-18T05:53:01;48.58;;;25.92;;
45408;SDS011;31162;51.076;3.784;2022-12-18T05:55:27;49.38;;;25.90;;
45408;SDS011;31162;51.076;3.784;2022-12-18T05:57:53;41.65;;;22.92;;
45408;SDS011;31162;51.076;3.784;2022-12-18T06:00:19;45.42;;;23.95;;
45408;SDS011;31162;51.076;3.784;2022-12-18T06:02:48;56.60;;;31.48;;
45408;SDS011;31162;51.076;3.784;2022-12-18T06:05:13;44.78;;;25.17;;
45408;SDS011;31162;51.076;3.784;2022-12-18T06:07:39;42.97;;;25.23;;
45408;SDS011;31162;51.076;3.784;2022-12-18T06:10:05;45.58;;;25.40;;
45408;SDS011;31162;51.076;3.784;2022-12-18T06:12:31;45.10;;;25.67;;
45408;SDS011;31162;51.076;3.784;2022-12-18T06:14:58;48.22;;;25.42;;
45408;SDS011;31162;51.076;3.784;2022-12-18T06:17:33;48.08;;;25.70;;
45408;SDS011;31162;51.076;3.784;2022-12-18T06:20:00;48.35;;;25.70;;
45408;SDS011;31162;51.076;3.784;2022-12-18T06:22:26;42.03;;;23.58;;
45408;SDS011;31162;51.076;3.784;2022-12-18T06:24:52;49.38;;;26.48;;
45408;SDS011;31162;51.076;3.784;2022-12-18T06:27:17;46.42;;;24.55;;
45408;SDS011;31162;51.076;3.784;2022-12-18T06:29:43;45.00;;;24.13;;
45408;SDS011;31162;51.076;3.784;2022-12-18T06:32:09;46.92;;;25.48;;
45408;SDS011;31162;51.076;3.784;2022-12-18T06:34:36;43.03;;;23.73;;
45408;SDS011;31162;51.076;3.784;2022-12-18T06:37:02;42.85;;;24.13;;
45408;SDS011;31162;51.076;3.784;2022-12-18T06:39:28;44.25;;;23.00;;
45408;SDS011;31162;51.076;3.784;2022-12-18T06:41:54;42.08;;;24.77;;
45408;SDS011;31162;51.076;3.784;2022-12-18T06:44:20;39.03;;;23.13;;
45408;SDS011;31162;51.076;3.784;2022-12-18T06:46:46;39.72;;;22.35;;
45408;SDS011;31162;51.076;3.784;2022-12-18T06:49:11;37.97;;;21.70;;
45408;SDS011;31162;51.076;3.784;2022-12-18T06:51:37;37.35;;;21.75;;
45408;SDS011;31162;51.076;3.784;2022-12-18T06:54:03;37.92;;;23.05;;
45408;SDS011;31162;51.076;3.784;2022-12-18T06:56:28;38.75;;;21.70;;
45408;SDS011;31162;51.076;3.784;2022-12-18T06:58:54;36.28;;;20.30;;
45408;SDS011;31162;51.076;3.784;2022-12-18T07:01:20;42.83;;;22.65;;
45408;SDS011;31162;51.076;3.784;2022-12-18T07:03:46;36.72;;;21.02;;
45408;SDS011;31162;51.076;3.784;2022-12-18T07:06:17;34.85;;;20.25;;
45408;SDS011;31162;51.076;3.784;2022-12-18T07:08:44;31.38;;;18.58;;
45408;SDS011;31162;51.076;3.784;2022-12-18T07:11:11;35.75;;;20.60;;
45408;SDS011;31162;51.076;3.784;2022-12-18T07:13:37;58.45;;;33.17;;
45408;SDS011;31162;51.076;3.784;2022-12-18T07:16:04;41.72;;;22.45;;
45408;SDS011;31162;51.076;3.784;2022-12-18T07:18:30;31.50;;;19.90;;
45408;SDS011;31162;51.076;3.784;2022-12-18T07:20:55;36.65;;;20.25;;
45408;SDS011;31162;51.076;3.784;2022-12-18T07:23:21;35.92;;;21.15;;
45408;SDS011;31162;51.076;3.784;2022-12-18T07:25:46;32.15;;;19.90;;
45408;SDS011;31162;51.076;3.784;2022-12-18T07:28:12;34.30;;;19.77;;
45408;SDS011;31162;51.076;3.784;2022-12-18T07:30:39;37.75;;;20.33;;
45408;SDS011;31162;51.076;3.784;2022-12-18T07:33:05;33.55;;;18.88;;
45408;SDS011;31162;51.076;3.784;2022-12-18T07:35:32;36.60;;;19.17;;
45408;SDS011;31162;51.076;3.784;2022-12-18T07:37:58;34.67;;;20.30;;
45408;SDS011;31162;51.076;3.784;2022-12-18T07:40:23;31.90;;;18.42;;
45408;SDS011;31162;51.076;3.784;2022-12-18T07:42:49;31.58;;;19.58;;
45408;SDS011;31162;51.076;3.784;2022-12-18T07:45:14;33.80;;;20.00;;
45408;SDS011;31162;51.076;3.784;2022-12-18T07:47:40;33.65;;;20.52;;
45408;SDS011;31162;51.076;3.784;2022-12-18T07:50:06;30.95;;;19.17;;
45408;SDS011;31162;51.076;3.784;2022-12-18T07:52:32;36.72;;;20.17;;
45408;SDS011;31162;51.076;3.784;2022-12-18T07:54:57;34.75;;;18.90;;
45408;SDS011;31162;51.076;3.784;2022-12-18T07:57:23;31.10;;;19.08;;
45408;SDS011;31162;51.076;3.784;2022-12-18T07:59:49;32.90;;;19.85;;
45408;SDS011;31162;51.076;3.784;2022-12-18T08:02:14;32.33;;;18.35;;
45408;SDS011;31162;51.076;3.784;2022-12-18T08:04:40;31.27;;;19.95;;
45408;SDS011;31162;51.076;3.784;2022-12-18T08:07:06;35.05;;;21.30;;
45408;SDS011;31162;51.076;3.784;2022-12-18T08:09:32;34.22;;;20.85;;
45408;SDS011;31162;51.076;3.784;2022-12-18T08:11:57;31.42;;;20.27;;
45408;SDS011;31162;51.076;3.784;2022-12-18T08:14:23;32.22;;;19.13;;
45408;SDS011;31162;51.076;3.784;2022-12-18T08:16:49;35.78;;;19.75;;
45408;SDS011;31162;51.076;3.784;2022-12-18T08:19:15;26.73;;;18.38;;
45408;SDS011;31162;51.076;3.784;2022-12-18T08:21:40;31.98;;;21.80;;
45408;SDS011;31162;51.076;3.784;2022-12-18T08:24:06;32.03;;;20.08;;
45408;SDS011;31162;51.076;3.784;2022-12-18T08:26:33;32.03;;;20.17;;
45408;SDS011;31162;51.076;3.784;2022-12-18T08:28:59;31.92;;;19.70;;
45408;SDS011;31162;51.076;3.784;2022-12-18T08:31:26;31.23;;;20.08;;
45408;SDS011;31162;51.076;3.784;2022-12-18T08:33:53;30.80;;;20.55;;
45408;SDS011;31162;51.076;3.784;2022-12-18T08:36:19;26.42;;;17.40;;
45408;SDS011;31162;51.076;3.784;2022-12-18T08:38:45;24.70;;;16.90;;
45408;SDS011;31162;51.076;3.784;2022-12-18T08:41:12;25.38;;;16.73;;
45408;SDS011;31162;51.076;3.784;2022-12-18T08:43:39;27.02;;;17.40;;
45408;SDS011;31162;51.076;3.784;2022-12-18T08:46:25;26.15;;;17.25;;
45408;SDS011;31162;51.076;3.784;2022-12-18T08:48:52;28.23;;;17.83;;
45408;SDS011;31162;51.076;3.784;2022-12-18T08:51:18;24.17;;;17.05;;
45408;SDS011;31162;51.076;3.784;2022-12-18T08:53:45;25.58;;;17.52;;
45408;SDS011;31162;51.076;3.784;2022-12-18T08:56:11;24.75;;;17.30;;
45408;SDS011;31162;51.076;3.784;2022-12-18T08:58:38;24.95;;;16.85;;
45408;SDS011;31162;51.076;3.784;2022-12-18T09:01:04;25.48;;;16.88;;
45408;SDS011;31162;51.076;3.784;2022-12-18T09:03:32;24.30;;;16.17;;
45408;SDS011;31162;51.076;3.784;2022-12-18T09:05:58;27.92;;;16.95;;
45408;SDS011;31162;51.076;3.784;2022-12-18T09:08:24;23.85;;;16.30;;
45408;SDS011;31162;51.076;3.784;2022-12-18T09:10:50;24.77;;;16.50;;
45408;SDS011;31162;51.076;3.784;2022-12-18T09:13:16;27.83;;;16.73;;
45408;SDS011;31162;51.076;3.784;2022-12-18T09:15:44;24.98;;;17.70;;
45408;SDS011;31162;51.076;3.784;2022-12-18T09:18:12;23.95;;;16.15;;
45408;SDS011;31162;51.076;3.784;2022-12-18T09:20:38;22.60;;;15.50;;
45408;SDS011;31162;51.076;3.784;2022-12-18T09:23:04;24.58;;;16.63;;
45408;SDS011;31162;51.076;3.784;2022-12-18T09:25:31;23.60;;;15.98;;
45408;SDS011;31162;51.076;3.784;2022-12-18T09:28:10;22.80;;;16.38;;
45408;SDS011;31162;51.076;3.784;2022-12-18T09:30:42;23.73;;;15.48;;
45408;SDS011;31162;51.076;3.784;2022-12-18T09:33:09;22.67;;;15.63;;
45408;SDS011;31162;51.076;3.784;2022-12-18T09:35:38;24.40;;;17.25;;
45408;SDS011;31162;51.076;3.784;2022-12-18T09:38:05;22.10;;;16.30;;
45408;SDS011;31162;51.076;3.784;2022-12-18T09:40:51;24.73;;;16.67;;
45408;SDS011;31162;51.076;3.784;2022-12-18T09:43:29;22.45;;;17.15;;
45408;SDS011;31162;51.076;3.784;2022-12-18T09:46:03;24.38;;;16.92;;
45408;SDS011;31162;51.076;3.784;2022-12-18T09:48:36;25.25;;;17.30;;
45408;SDS011;31162;51.076;3.784;2022-12-18T09:51:16;23.90;;;18.52;;
45408;SDS011;31162;51.076;3.784;2022-12-18T09:53:53;25.48;;;17.88;;
45408;SDS011;31162;51.076;3.784;2022-12-18T09:56:28;20.63;;;16.23;;
45408;SDS011;31162;51.076;3.784;2022-12-18T09:58:59;22.70;;;16.77;;
45408;SDS011;31162;51.076;3.784;2022-12-18T10:01:27;21.33;;;16.02;;
45408;SDS011;31162;51.076;3.784;2022-12-18T10:03:54;24.38;;;19.50;;
45408;SDS011;31162;51.076;3.784;2022-12-18T10:06:29;30.90;;;22.75;;
45408;SDS011;31162;51.076;3.784;2022-12-18T10:09:22;28.10;;;22.15;;
45408;SDS011;31162;51.076;3.784;2022-12-18T10:27:37;22.02;;;17.25;;
45408;SDS011;31162;51.076;3.784;2022-12-18T10:30:07;23.98;;;16.25;;
45408;SDS011;31162;51.076;3.784;2022-12-18T10:32:38;24.60;;;17.75;;
45408;SDS011;31162;51.076;3.784;2022-12-18T10:35:04;25.92;;;17.52;;
45408;SDS011;31162;51.076;3.784;2022-12-18T10:37:34;20.38;;;16.10;;
45408;SDS011;31162;51.076;3.784;2022-12-18T10:40:11;26.90;;;19.73;;
45408;SDS011;31162;51.076;3.784;2022-12-18T10:42:39;25.65;;;18.67;;
45408;SDS011;31162;51.076;3.784;2022-12-18T10:45:11;24.00;;;17.67;;
45408;SDS011;31162;51.076;3.784;2022-12-18T10:47:48;23.05;;;17.23;;
45408;SDS011;31162;51.076;3.784;2022-12-18T10:50:28;21.38;;;16.88;;
45408;SDS011;31162;51.076;3.784;2022-12-18T10:52:57;28.63;;;21.00;;
45408;SDS011;31162;51.076;3.784;2022-12-18T10:55:35;28.00;;;19.50;;
45408;SDS011;31162;51.076;3.784;2022-12-18T10:58:13;21.77;;;17.15;;
45408;SDS011;31162;51.076;3.784;2022-12-18T11:08:30;22.13;;;16.48;;
45408;SDS011;31162;51.076;3.784;2022-12-18T11:10:56;21.45;;;16.38;;
45408;SDS011;31162;51.076;3.784;2022-12-18T11:13:22;23.08;;;17.60;;
45408;SDS011;31162;51.076;3.784;2022-12-18T11:15:50;24.55;;;17.95;;
45408;SDS011;31162;51.076;3.784;2022-12-18T11:18:22;26.50;;;19.65;;
45408;SDS011;31162;51.076;3.784;2022-12-18T11:21:16;23.95;;;17.70;;
45408;SDS011;31162;51.076;3.784;2022-12-18T11:23:49;21.67;;;17.10;;
45408;SDS011;31162;51.076;3.784;2022-12-18T11:26:16;22.75;;;17.05;;
45408;SDS011;31162;51.076;3.784;2022-12-18T11:28:49;22.48;;;18.27;;
45408;SDS011;31162;51.076;3.784;2022-12-18T11:31:27;24.77;;;19.67;;
45408;SDS011;31162;51.076;3.784;2022-12-18T11:36:23;24.73;;;19.95;;
45408;SDS011;31162;51.076;3.784;2022-12-18T11:38:51;32.85;;;22.05;;
45408;SDS011;31162;51.076;3.784;2022-12-18T11:44:19;36.88;;;24.65;;
45408;SDS011;31162;51.076;3.784;2022-12-18T11:46:53;29.55;;;21.80;;
45408;SDS011;31162;51.076;3.784;2022-12-18T11:49:25;30.63;;;22.20;;
45408;SDS011;31162;51.076;3.784;2022-12-18T11:52:01;29.40;;;21.50;;
45408;SDS011;31162;51.076;3.784;2022-12-18T11:54:37;30.88;;;22.50;;
45408;SDS011;31162;51.076;3.784;2022-12-18T12:08:08;26.13;;;18.90;;
45408;SDS011;31162;51.076;3.784;2022-12-18T12:18:50;23.33;;;18.52;;
45408;SDS011;31162;51.076;3.784;2022-12-18T12:39:44;25.67;;;19.55;;
45408;SDS011;31162;51.076;3.784;2022-12-18T12:45:20;26.27;;;17.60;;
45408;SDS011;31162;51.076;3.784;2022-12-18T12:48:12;25.70;;;18.65;;
45408;SDS011;31162;51.076;3.784;2022-12-18T12:50:54;21.83;;;17.05;;
45408;SDS011;31162;51.076;3.784;2022-12-18T12:53:23;24.20;;;19.38;;
45408;SDS011;31162;51.076;3.784;2022-12-18T12:55:55;21.67;;;17.73;;
45408;SDS011;31162;51.076;3.784;2022-12-18T12:58:32;23.98;;;18.15;;
45408;SDS011;31162;51.076;3.784;2022-12-18T13:03:42;24.20;;;18.17;;
45408;SDS011;31162;51.076;3.784;2022-12-18T13:09:24;26.45;;;17.67;;
45408;SDS011;31162;51.076;3.784;2022-12-18T13:11:55;21.70;;;14.77;;
45408;SDS011;31162;51.076;3.784;2022-12-18T13:14:54;23.70;;;17.30;;
45408;SDS011;31162;51.076;3.784;2022-12-18T13:18:04;23.40;;;18.35;;
45408;SDS011;31162;51.076;3.784;2022-12-18T13:25:50;28.63;;;19.63;;
45408;SDS011;31162;51.076;3.784;2022-12-18T13:28:20;24.48;;;18.73;;
45408;SDS011;31162;51.076;3.784;2022-12-18T13:31:10;26.30;;;18.92;;
45408;SDS011;31162;51.076;3.784;2022-12-18T13:33:37;25.33;;;19.17;;
45408;SDS011;31162;51.076;3.784;2022-12-18T13:38:41;27.40;;;18.92;;
45408;SDS011;31162;51.076;3.784;2022-12-18T13:43:48;28.95;;;20.23;;
45408;SDS011;31162;51.076;3.784;2022-12-18T13:49:06;28.08;;;20.27;;
45408;SDS011;31162;51.076;3.784;2022-12-18T13:51:42;27.33;;;20.17;;
45408;SDS011;31162;51.076;3.784;2022-12-18T13:56:47;28.40;;;19.92;;
45408;SDS011;31162;51.076;3.784;2022-12-18T13:59:21;29.63;;;21.60;;
45408;SDS011;31162;51.076;3.784;2022-12-18T14:02:30;30.50;;;20.60;;
45408;SDS011;31162;51.076;3.784;2022-12-18T14:04:46;28.45;;;20.35;;
45408;SDS011;31162;51.076;3.784;2022-12-18T14:07:13;32.53;;;20.73;;
45408;SDS011;31162;51.076;3.784;2022-12-18T14:09:45;29.80;;;20.52;;
45408;SDS011;31162;51.076;3.784;2022-12-18T14:12:21;30.45;;;21.58;;
45408;SDS011;31162;51.076;3.784;2022-12-18T14:15:29;31.23;;;21.45;;
45408;SDS011;31162;51.076;3.784;2022-12-18T14:18:21;30.00;;;20.77;;
45408;SDS011;31162;51.076;3.784;2022-12-18T14:21:15;30.90;;;21.55;;
45408;SDS011;31162;51.076;3.784;2022-12-18T14:23:48;33.85;;;22.80;;
45408;SDS011;31162;51.076;3.784;2022-12-18T14:26:21;30.13;;;20.95;;
45408;SDS011;31162;51.076;3.784;2022-12-18T14:28:50;30.25;;;20.48;;
45408;SDS011;31162;51.076;3.784;2022-12-18T14:31:24;30.73;;;21.45;;
45408;SDS011;31162;51.076;3.784;2022-12-18T14:33:51;29.95;;;21.95;;
45408;SDS011;31162;51.076;3.784;2022-12-18T14:36:18;32.00;;;21.27;;
45408;SDS011;31162;51.076;3.784;2022-12-18T14:38:48;29.42;;;21.17;;
45408;SDS011;31162;51.076;3.784;2022-12-18T14:41:18;31.85;;;22.63;;
45408;SDS011;31162;51.076;3.784;2022-12-18T14:43:49;28.42;;;20.48;;
45408;SDS011;31162;51.076;3.784;2022-12-18T14:46:27;31.73;;;22.83;;
45408;SDS011;31162;51.076;3.784;2022-12-18T14:49:32;31.63;;;20.88;;
45408;SDS011;31162;51.076;3.784;2022-12-18T14:52:20;31.65;;;21.65;;
45408;SDS011;31162;51.076;3.784;2022-12-18T14:55:01;32.38;;;21.02;;
45408;SDS011;31162;51.076;3.784;2022-12-18T14:57:32;32.53;;;21.38;;
45408;SDS011;31162;51.076;3.784;2022-12-18T15:00:06;32.58;;;22.23;;
45408;SDS011;31162;51.076;3.784;2022-12-18T15:02:40;28.95;;;20.85;;
45408;SDS011;31162;51.076;3.784;2022-12-18T15:05:16;33.35;;;21.88;;
45408;SDS011;31162;51.076;3.784;2022-12-18T15:07:45;31.50;;;21.60;;
45408;SDS011;31162;51.076;3.784;2022-12-18T15:10:14;30.75;;;21.52;;
45408;SDS011;31162;51.076;3.784;2022-12-18T15:20:38;32.17;;;23.05;;
45408;SDS011;31162;51.076;3.784;2022-12-18T15:23:13;29.08;;;21.20;;
45408;SDS011;31162;51.076;3.784;2022-12-18T15:25:39;31.25;;;21.67;;
45408;SDS011;31162;51.076;3.784;2022-12-18T15:28:15;33.28;;;21.98;;
45408;SDS011;31162;51.076;3.784;2022-12-18T15:33:33;30.05;;;21.23;;
45408;SDS011;31162;51.076;3.784;2022-12-18T15:36:05;33.25;;;21.50;;
45408;SDS011;31162;51.076;3.784;2022-12-18T15:38:35;32.60;;;21.33;;
45408;SDS011;31162;51.076;3.784;2022-12-18T15:41:01;29.55;;;21.17;;
45408;SDS011;31162;51.076;3.784;2022-12-18T15:43:27;31.50;;;21.50;;
45408;SDS011;31162;51.076;3.784;2022-12-18T15:48:47;33.47;;;23.77;;
45408;SDS011;31162;51.076;3.784;2022-12-18T15:51:16;31.08;;;21.67;;
45408;SDS011;31162;51.076;3.784;2022-12-18T15:53:45;33.25;;;22.65;;
45408;SDS011;31162;51.076;3.784;2022-12-18T15:56:13;30.20;;;21.17;;
45408;SDS011;31162;51.076;3.784;2022-12-18T15:58:59;35.28;;;25.73;;
45408;SDS011;31162;51.076;3.784;2022-12-18T16:01:29;33.65;;;24.77;;
45408;SDS011;31162;51.076;3.784;2022-12-18T16:03:56;33.13;;;22.17;;
45408;SDS011;31162;51.076;3.784;2022-12-18T16:06:22;32.05;;;23.70;;
45408;SDS011;31162;51.076;3.784;2022-12-18T16:08:48;30.95;;;21.88;;
45408;SDS011;31162;51.076;3.784;2022-12-18T16:11:22;30.80;;;21.42;;
45408;SDS011;31162;51.076;3.784;2022-12-18T16:14:21;29.90;;;20.83;;
45408;SDS011;31162;51.076;3.784;2022-12-18T16:16:49;48.42;;;32.47;;
45408;SDS011;31162;51.076;3.784;2022-12-18T16:19:22;36.40;;;27.95;;
45408;SDS011;31162;51.076;3.784;2022-12-18T16:21:48;31.17;;;20.23;;
45408;SDS011;31162;51.076;3.784;2022-12-18T16:24:19;32.63;;;21.58;;
45408;SDS011;31162;51.076;3.784;2022-12-18T16:26:49;29.92;;;20.48;;
45408;SDS011;31162;51.076;3.784;2022-12-18T16:29:16;30.60;;;19.80;;
45408;SDS011;31162;51.076;3.784;2022-12-18T16:31:43;29.00;;;21.52;;
45408;SDS011;31162;51.076;3.784;2022-12-18T16:36:39;28.90;;;20.98;;
45408;SDS011;31162;51.076;3.784;2022-12-18T16:39:05;32.72;;;21.95;;
45408;SDS011;31162;51.076;3.784;2022-12-18T16:41:31;29.15;;;21.08;;
45408;SDS011;31162;51.076;3.784;2022-12-18T16:43:57;33.20;;;22.00;;